Terminal Aerodrome Forecast
Issued by NWS

Home | Current Version | Previous Version | Text Only | Print | Product List | Glossary On
Versions: 1 2 3 4 5 6 7 8 9 10 11 12 13 14 15 16 17 18 19 20 21 22 23 24 25
000
FTUS43 KDLH 161000 AAA
TAFBRD
TAF AMD
KBRD 161044Z 1611/1706 12009G15KT P6SM -SN SCT025 OVC035
     FM161200 10011G18KT 1 1/2SM -SN SCT007 OVC015
     FM161500 08014G22KT 1/4SM +SN BLSN OVC006
     FM162200 05016G28KT 1 1/2SM -SN BLSN OVC006
     FM170300 03013G22KT 4SM -SN OVC012=

USA.gov is the U.S. government's official web portal to all federal, state and local government web resources and services.